createdAt,value
2022-10-07T05:12:09.053Z,1023.82
2022-10-07T05:23:25.657Z,1023.82
2022-10-07T05:34:31.158Z,1023.82
2022-10-07T05:45:41.834Z,1022.77
2022-10-07T05:56:49.762Z,1023.82
2022-10-07T06:07:53.211Z,1023.82
2022-10-07T06:19:09.717Z,1023.82
2022-10-07T06:30:17.162Z,1022.77
2022-10-07T06:41:30.889Z,1022.77
2022-10-07T06:52:43.335Z,1022.77
2022-10-07T07:03:57.419Z,1022.77
2022-10-07T07:14:56.234Z,1022.77
2022-10-07T07:25:47.807Z,1022.77
2022-10-07T07:37:02.839Z,1022.77
2022-10-07T07:47:50.955Z,1022.77
2022-10-07T07:59:01.183Z,1022.77
2022-10-07T08:10:03.603Z,1022.77
2022-10-07T08:21:08.382Z,1022.77
2022-10-07T08:32:06.342Z,1022.77
2022-10-07T08:43:08.948Z,1022.77
2022-10-07T08:54:10.689Z,1022.77
2022-10-07T09:05:10.223Z,1021.73
2022-10-07T09:16:13.296Z,1023.82
2022-10-07T09:27:15.449Z,1021.73
2022-10-07T09:38:17.754Z,1021.73
2022-10-07T09:49:24.334Z,1021.73
2022-10-07T10:00:27.040Z,1021.73
2022-10-07T10:11:28.871Z,1021.73
2022-10-07T10:22:31.510Z,1020.68
2022-10-07T10:33:34.855Z,1020.68
2022-10-07T10:44:44.311Z,1020.68
2022-10-07T10:55:41.508Z,1020.68
2022-10-07T11:06:42.774Z,1020.68
2022-10-07T11:17:43.049Z,1020.68
2022-10-07T11:28:45.978Z,1019.64
2022-10-07T11:39:41.439Z,1019.64
2022-10-07T11:50:14.403Z,1019.64
2022-10-07T12:00:51.774Z,1019.64
2022-10-07T12:11:25.818Z,1019.64
2022-10-07T12:22:04.261Z,1019.64
2022-10-07T12:33:05.177Z,1018.59
2022-10-07T12:44:04.766Z,1018.59
2022-10-07T12:54:39.203Z,1018.59
2022-10-07T13:05:39.353Z,1018.59
2022-10-07T13:16:35.189Z,1018.59
2022-10-07T13:27:13.115Z,1018.59
2022-10-07T13:38:14.934Z,1018.59
2022-10-07T13:49:14.307Z,1017.55
2022-10-07T14:00:09.307Z,1018.59
2022-10-07T14:11:07.668Z,1017.55
2022-10-07T14:22:06.912Z,1017.55
2022-10-07T14:33:02.300Z,1017.55
2022-10-07T14:43:58.250Z,1017.55
2022-10-07T14:54:57.550Z,1017.55
2022-10-07T15:05:54.161Z,1017.55
2022-10-07T15:16:54.219Z,1017.55
2022-10-07T15:27:52.062Z,1017.55
2022-10-07T15:38:47.233Z,1017.55
2022-10-07T15:49:47.363Z,1017.55
2022-10-07T16:00:47.762Z,1017.55
2022-10-07T16:11:23.071Z,1017.55
2022-10-07T16:22:22.994Z,1017.55
2022-10-07T16:33:05.673Z,1017.55
2022-10-07T16:44:05.844Z,1017.55
2022-10-07T16:55:06.354Z,1018.59
2022-10-07T17:06:03.102Z,1018.59
2022-10-07T17:16:57.790Z,1018.59
2022-10-07T17:27:53.980Z,1018.59
2022-10-07T17:38:53.295Z,1018.59
2022-10-07T17:49:53.661Z,1018.59
2022-10-07T18:00:53.866Z,1018.59
2022-10-07T18:11:52.126Z,1018.59
2022-10-07T18:22:42.263Z,1018.59
2022-10-07T18:33:38.723Z,1018.59
2022-10-07T18:44:35.198Z,1018.59
2022-10-07T18:55:32.615Z,1018.59
2022-10-07T19:06:29.885Z,1018.59
2022-10-07T19:17:23.947Z,1018.59
2022-10-07T19:28:21.562Z,1018.59
2022-10-07T19:39:16.256Z,1018.59
2022-10-07T19:50:10.816Z,1018.59
2022-10-07T20:01:11.799Z,1018.59
2022-10-07T20:12:06.604Z,1018.59
2022-10-07T20:23:04.685Z,1018.59
2022-10-07T20:34:00.864Z,1018.59
2022-10-07T20:44:53.539Z,1018.59
2022-10-07T20:55:48.250Z,1018.59
2022-10-07T21:06:46.886Z,1018.59
2022-10-07T21:17:34.069Z,1018.59
2022-10-07T21:28:12.773Z,1017.55
2022-10-07T21:39:06.408Z,1017.55
2022-10-07T21:50:01.946Z,1017.55
2022-10-07T22:00:57.076Z,1017.55
2022-10-07T22:11:34.102Z,1017.55
2022-10-07T22:22:30.731Z,1017.55
2022-10-07T22:33:20.766Z,1017.55
2022-10-07T22:44:14.831Z,1017.55
2022-10-07T22:54:51.324Z,1016.50
2022-10-07T23:05:35.075Z,1016.50
2022-10-07T23:16:12.982Z,1016.50
2022-10-07T23:27:09.945Z,1016.50
2022-10-07T23:38:05.058Z,1016.50
2022-10-07T23:49:04.128Z,1016.50
2022-10-07T23:59:56.419Z,1016.50
